sensor_id;sensor_type;location;lat;lon;timestamp;temperature;humidity
22781;DHT22;11557;50.884;4.322;2023-01-28T00:01:51;7.10;99.90
22781;DHT22;11557;50.884;4.322;2023-01-28T00:04:16;6.50;99.90
22781;DHT22;11557;50.884;4.322;2023-01-28T00:06:42;6.30;99.90
22781;DHT22;11557;50.884;4.322;2023-01-28T00:09:08;6.70;99.90
22781;DHT22;11557;50.884;4.322;2023-01-28T00:11:34;6.60;99.90
22781;DHT22;11557;50.884;4.322;2023-01-28T00:14:00;6.40;99.90
22781;DHT22;11557;50.884;4.322;2023-01-28T00:16:27;6.50;99.90
22781;DHT22;11557;50.884;4.322;2023-01-28T00:18:53;7.00;99.90
22781;DHT22;11557;50.884;4.322;2023-01-28T00:21:19;6.80;99.90
22781;DHT22;11557;50.884;4.322;2023-01-28T00:23:52;7.00;99.90
22781;DHT22;11557;50.884;4.322;2023-01-28T00:26:20;6.90;99.90
22781;DHT22;11557;50.884;4.322;2023-01-28T00:28:46;6.80;99.90
22781;DHT22;11557;50.884;4.322;2023-01-28T00:31:18;6.50;99.90
22781;DHT22;11557;50.884;4.322;2023-01-28T00:33:45;6.70;99.90
22781;DHT22;11557;50.884;4.322;2023-01-28T00:36:12;6.90;99.90
22781;DHT22;11557;50.884;4.322;2023-01-28T00:38:38;6.20;99.90
22781;DHT22;11557;50.884;4.322;2023-01-28T00:41:15;6.20;99.90
22781;DHT22;11557;50.884;4.322;2023-01-28T00:43:41;5.90;99.90
22781;DHT22;11557;50.884;4.322;2023-01-28T00:46:08;6.00;99.90
22781;DHT22;11557;50.884;4.322;2023-01-28T00:48:35;6.00;99.90
22781;DHT22;11557;50.884;4.322;2023-01-28T00:51:02;6.30;99.90
22781;DHT22;11557;50.884;4.322;2023-01-28T00:53:28;6.50;99.90
22781;DHT22;11557;50.884;4.322;2023-01-28T00:55:54;6.60;99.90
22781;DHT22;11557;50.884;4.322;2023-01-28T00:58:20;6.40;99.90
22781;DHT22;11557;50.884;4.322;2023-01-28T01:00:45;6.20;99.90
22781;DHT22;11557;50.884;4.322;2023-01-28T01:03:11;6.30;99.90
22781;DHT22;11557;50.884;4.322;2023-01-28T01:05:37;6.40;99.90
22781;DHT22;11557;50.884;4.322;2023-01-28T01:08:03;6.90;99.90
22781;DHT22;11557;50.884;4.322;2023-01-28T01:10:29;6.20;99.90
22781;DHT22;11557;50.884;4.322;2023-01-28T01:12:54;6.60;99.90
22781;DHT22;11557;50.884;4.322;2023-01-28T01:15:22;6.20;99.90
22781;DHT22;11557;50.884;4.322;2023-01-28T01:17:49;6.10;99.90
22781;DHT22;11557;50.884;4.322;2023-01-28T01:20:18;6.40;99.90
22781;DHT22;11557;50.884;4.322;2023-01-28T01:22:44;5.60;99.90
22781;DHT22;11557;50.884;4.322;2023-01-28T01:25:12;5.70;99.90
22781;DHT22;11557;50.884;4.322;2023-01-28T01:27:38;6.00;99.90
22781;DHT22;11557;50.884;4.322;2023-01-28T01:30:04;5.90;99.90
22781;DHT22;11557;50.884;4.322;2023-01-28T01:32:33;6.00;99.90
22781;DHT22;11557;50.884;4.322;2023-01-28T01:35:00;6.70;99.90
22781;DHT22;11557;50.884;4.322;2023-01-28T01:37:26;6.20;99.90
22781;DHT22;11557;50.884;4.322;2023-01-28T01:39:52;6.50;99.90
22781;DHT22;11557;50.884;4.322;2023-01-28T01:42:17;5.60;99.90
22781;DHT22;11557;50.884;4.322;2023-01-28T01:45:04;6.50;99.90
22781;DHT22;11557;50.884;4.322;2023-01-28T01:50:52;6.10;99.90
22781;DHT22;11557;50.884;4.322;2023-01-28T01:52:55;6.00;99.90
22781;DHT22;11557;50.884;4.322;2023-01-28T01:55:24;6.20;99.90
22781;DHT22;11557;50.884;4.322;2023-01-28T01:57:54;5.70;99.90
22781;DHT22;11557;50.884;4.322;2023-01-28T02:00:21;6.10;99.90
22781;DHT22;11557;50.884;4.322;2023-01-28T02:02:48;5.80;99.90
22781;DHT22;11557;50.884;4.322;2023-01-28T02:05:17;5.70;99.90
22781;DHT22;11557;50.884;4.322;2023-01-28T02:07:44;6.30;99.90
22781;DHT22;11557;50.884;4.322;2023-01-28T02:10:12;5.80;99.90
22781;DHT22;11557;50.884;4.322;2023-01-28T02:12:44;5.80;99.90
22781;DHT22;11557;50.884;4.322;2023-01-28T02:15:16;6.90;99.90
22781;DHT22;11557;50.884;4.322;2023-01-28T02:17:43;6.50;99.90
22781;DHT22;11557;50.884;4.322;2023-01-28T02:20:15;6.20;99.90
22781;DHT22;11557;50.884;4.322;2023-01-28T02:28:08;6.10;99.90
22781;DHT22;11557;50.884;4.322;2023-01-28T02:31:05;6.00;99.90
22781;DHT22;11557;50.884;4.322;2023-01-28T02:33:52;5.90;99.90
22781;DHT22;11557;50.884;4.322;2023-01-28T02:36:35;6.00;99.90
22781;DHT22;11557;50.884;4.322;2023-01-28T02:39:11;5.90;99.90
22781;DHT22;11557;50.884;4.322;2023-01-28T02:41:46;5.80;99.90
22781;DHT22;11557;50.884;4.322;2023-01-28T02:44:13;5.80;99.90
22781;DHT22;11557;50.884;4.322;2023-01-28T02:46:38;5.80;99.90
22781;DHT22;11557;50.884;4.322;2023-01-28T02:49:30;5.70;99.90
22781;DHT22;11557;50.884;4.322;2023-01-28T03:02:43;5.60;99.90
22781;DHT22;11557;50.884;4.322;2023-01-28T03:05:26;5.70;99.90
22781;DHT22;11557;50.884;4.322;2023-01-28T03:07:53;6.60;99.90
22781;DHT22;11557;50.884;4.322;2023-01-28T03:10:21;5.60;99.90
22781;DHT22;11557;50.884;4.322;2023-01-28T03:12:51;6.50;99.90
22781;DHT22;11557;50.884;4.322;2023-01-28T03:15:47;6.20;99.90
22781;DHT22;11557;50.884;4.322;2023-01-28T03:18:37;5.60;99.90
22781;DHT22;11557;50.884;4.322;2023-01-28T03:21:33;5.40;99.90
22781;DHT22;11557;50.884;4.322;2023-01-28T03:24:31;5.50;99.90
22781;DHT22;11557;50.884;4.322;2023-01-28T03:30:04;5.50;99.90
22781;DHT22;11557;50.884;4.322;2023-01-28T03:32:52;5.50;99.90
22781;DHT22;11557;50.884;4.322;2023-01-28T03:35:36;5.60;99.90
22781;DHT22;11557;50.884;4.322;2023-01-28T03:38:21;5.60;99.90
22781;DHT22;11557;50.884;4.322;2023-01-28T03:40:55;6.00;99.90
22781;DHT22;11557;50.884;4.322;2023-01-28T03:43:21;5.50;99.90
22781;DHT22;11557;50.884;4.322;2023-01-28T03:45:47;6.20;99.90
22781;DHT22;11557;50.884;4.322;2023-01-28T03:48:18;5.40;99.90
22781;DHT22;11557;50.884;4.322;2023-01-28T03:50:44;6.00;99.90
22781;DHT22;11557;50.884;4.322;2023-01-28T03:53:10;5.70;99.90
22781;DHT22;11557;50.884;4.322;2023-01-28T03:55:43;6.20;99.90
22781;DHT22;11557;50.884;4.322;2023-01-28T03:58:09;5.80;99.90
22781;DHT22;11557;50.884;4.322;2023-01-28T04:00:36;5.80;99.90
22781;DHT22;11557;50.884;4.322;2023-01-28T04:05:44;5.70;99.90
22781;DHT22;11557;50.884;4.322;2023-01-28T04:08:11;6.20;99.90
22781;DHT22;11557;50.884;4.322;2023-01-28T04:10:40;5.70;99.90
22781;DHT22;11557;50.884;4.322;2023-01-28T04:13:06;5.70;99.90
22781;DHT22;11557;50.884;4.322;2023-01-28T04:15:32;6.00;99.90
22781;DHT22;11557;50.884;4.322;2023-01-28T04:17:58;5.90;99.90
22781;DHT22;11557;50.884;4.322;2023-01-28T04:20:25;6.00;99.90
22781;DHT22;11557;50.884;4.322;2023-01-28T04:22:51;6.00;99.90
22781;DHT22;11557;50.884;4.322;2023-01-28T04:25:16;5.80;99.90
22781;DHT22;11557;50.884;4.322;2023-01-28T04:27:42;6.50;99.90
22781;DHT22;11557;50.884;4.322;2023-01-28T04:30:08;6.60;99.90
22781;DHT22;11557;50.884;4.322;2023-01-28T04:32:34;5.80;99.90
22781;DHT22;11557;50.884;4.322;2023-01-28T04:35:00;6.30;99.90
22781;DHT22;11557;50.884;4.322;2023-01-28T04:37:26;5.80;99.90
22781;DHT22;11557;50.884;4.322;2023-01-28T04:39:51;5.80;99.90
22781;DHT22;11557;50.884;4.322;2023-01-28T04:42:17;6.50;99.90
22781;DHT22;11557;50.884;4.322;2023-01-28T04:44:43;6.60;99.90
22781;DHT22;11557;50.884;4.322;2023-01-28T04:47:08;6.00;99.90
22781;DHT22;11557;50.884;4.322;2023-01-28T04:49:34;6.00;99.90
22781;DHT22;11557;50.884;4.322;2023-01-28T04:52:00;6.00;99.90
22781;DHT22;11557;50.884;4.322;2023-01-28T04:54:25;5.80;99.90
22781;DHT22;11557;50.884;4.322;2023-01-28T04:56:51;5.90;99.90
22781;DHT22;11557;50.884;4.322;2023-01-28T04:59:17;5.80;99.90
22781;DHT22;11557;50.884;4.322;2023-01-28T05:01:44;4.80;99.90
22781;DHT22;11557;50.884;4.322;2023-01-28T05:04:10;5.80;99.90
22781;DHT22;11557;50.884;4.322;2023-01-28T05:06:35;5.50;99.90
22781;DHT22;11557;50.884;4.322;2023-01-28T05:09:01;5.40;99.90
22781;DHT22;11557;50.884;4.322;2023-01-28T05:11:26;6.30;99.90
22781;DHT22;11557;50.884;4.322;2023-01-28T05:13:53;5.60;99.90
22781;DHT22;11557;50.884;4.322;2023-01-28T05:16:19;6.30;99.90
22781;DHT22;11557;50.884;4.322;2023-01-28T05:18:45;6.00;99.90
22781;DHT22;11557;50.884;4.322;2023-01-28T05:21:13;5.60;99.90
22781;DHT22;11557;50.884;4.322;2023-01-28T05:23:39;6.10;99.90
22781;DHT22;11557;50.884;4.322;2023-01-28T05:26:05;5.80;99.90
22781;DHT22;11557;50.884;4.322;2023-01-28T05:28:30;5.40;99.90
22781;DHT22;11557;50.884;4.322;2023-01-28T05:30:56;5.80;99.90
22781;DHT22;11557;50.884;4.322;2023-01-28T05:33:22;5.40;99.90
22781;DHT22;11557;50.884;4.322;2023-01-28T05:35:47;5.50;99.90
22781;DHT22;11557;50.884;4.322;2023-01-28T05:38:14;6.10;99.90
22781;DHT22;11557;50.884;4.322;2023-01-28T05:40:39;5.70;99.90
22781;DHT22;11557;50.884;4.322;2023-01-28T05:43:05;5.50;99.90
22781;DHT22;11557;50.884;4.322;2023-01-28T05:45:31;5.60;99.90
22781;DHT22;11557;50.884;4.322;2023-01-28T05:47:56;6.40;99.90
22781;DHT22;11557;50.884;4.322;2023-01-28T05:50:22;5.50;99.90
22781;DHT22;11557;50.884;4.322;2023-01-28T05:52:48;6.50;99.90
22781;DHT22;11557;50.884;4.322;2023-01-28T05:55:14;5.80;99.90
22781;DHT22;11557;50.884;4.322;2023-01-28T05:57:40;5.20;99.90
22781;DHT22;11557;50.884;4.322;2023-01-28T06:00:06;5.10;99.90
22781;DHT22;11557;50.884;4.322;2023-01-28T06:02:32;5.20;99.90
22781;DHT22;11557;50.884;4.322;2023-01-28T06:04:58;5.40;99.90
22781;DHT22;11557;50.884;4.322;2023-01-28T06:07:24;5.50;99.90
22781;DHT22;11557;50.884;4.322;2023-01-28T06:09:49;6.00;99.90
22781;DHT22;11557;50.884;4.322;2023-01-28T06:12:15;5.80;99.90
22781;DHT22;11557;50.884;4.322;2023-01-28T06:14:41;5.10;99.90
22781;DHT22;11557;50.884;4.322;2023-01-28T06:17:07;5.10;99.90
22781;DHT22;11557;50.884;4.322;2023-01-28T06:19:33;5.30;99.90
22781;DHT22;11557;50.884;4.322;2023-01-28T06:21:58;5.60;99.90
22781;DHT22;11557;50.884;4.322;2023-01-28T06:24:24;6.50;99.90
22781;DHT22;11557;50.884;4.322;2023-01-28T06:26:50;6.00;99.90
22781;DHT22;11557;50.884;4.322;2023-01-28T06:29:16;5.90;99.90
22781;DHT22;11557;50.884;4.322;2023-01-28T06:31:41;5.90;99.90
22781;DHT22;11557;50.884;4.322;2023-01-28T06:34:08;5.70;99.90
22781;DHT22;11557;50.884;4.322;2023-01-28T06:36:35;5.80;99.90
22781;DHT22;11557;50.884;4.322;2023-01-28T06:39:03;6.10;99.90
22781;DHT22;11557;50.884;4.322;2023-01-28T06:41:28;5.90;99.90
22781;DHT22;11557;50.884;4.322;2023-01-28T06:43:54;6.20;99.90
22781;DHT22;11557;50.884;4.322;2023-01-28T06:46:20;5.80;99.90
22781;DHT22;11557;50.884;4.322;2023-01-28T06:48:45;5.70;99.90
22781;DHT22;11557;50.884;4.322;2023-01-28T06:51:11;5.60;99.90
22781;DHT22;11557;50.884;4.322;2023-01-28T06:53:36;5.70;99.90
22781;DHT22;11557;50.884;4.322;2023-01-28T06:56:02;5.80;99.90
22781;DHT22;11557;50.884;4.322;2023-01-28T06:58:28;5.70;99.90
22781;DHT22;11557;50.884;4.322;2023-01-28T07:00:54;5.40;99.90
22781;DHT22;11557;50.884;4.322;2023-01-28T07:03:19;5.40;99.90
22781;DHT22;11557;50.884;4.322;2023-01-28T07:05:45;5.60;99.90
22781;DHT22;11557;50.884;4.322;2023-01-28T07:08:11;5.70;99.90
22781;DHT22;11557;50.884;4.322;2023-01-28T07:10:37;5.60;99.90
22781;DHT22;11557;50.884;4.322;2023-01-28T07:13:03;5.60;99.90
22781;DHT22;11557;50.884;4.322;2023-01-28T07:15:28;6.20;99.90
22781;DHT22;11557;50.884;4.322;2023-01-28T07:17:54;5.90;99.90
22781;DHT22;11557;50.884;4.322;2023-01-28T07:20:19;6.30;99.90
22781;DHT22;11557;50.884;4.322;2023-01-28T07:22:45;5.60;99.90
22781;DHT22;11557;50.884;4.322;2023-01-28T07:25:12;5.50;99.90
22781;DHT22;11557;50.884;4.322;2023-01-28T07:27:38;5.60;99.90
22781;DHT22;11557;50.884;4.322;2023-01-28T07:30:04;5.50;99.90
22781;DHT22;11557;50.884;4.322;2023-01-28T07:32:30;5.50;99.90
22781;DHT22;11557;50.884;4.322;2023-01-28T07:34:56;5.50;99.90
22781;DHT22;11557;50.884;4.322;2023-01-28T07:37:23;5.40;99.90
22781;DHT22;11557;50.884;4.322;2023-01-28T07:39:48;5.40;99.90
22781;DHT22;11557;50.884;4.322;2023-01-28T07:42:14;6.10;99.90
22781;DHT22;11557;50.884;4.322;2023-01-28T07:44:40;5.50;99.90
22781;DHT22;11557;50.884;4.322;2023-01-28T07:47:06;5.50;99.90
22781;DHT22;11557;50.884;4.322;2023-01-28T07:49:35;5.50;99.90
22781;DHT22;11557;50.884;4.322;2023-01-28T07:52:04;5.50;99.90
22781;DHT22;11557;50.884;4.322;2023-01-28T07:54:30;5.60;99.90
22781;DHT22;11557;50.884;4.322;2023-01-28T07:56:55;6.10;99.90
22781;DHT22;11557;50.884;4.322;2023-01-28T07:59:21;6.10;99.90
22781;DHT22;11557;50.884;4.322;2023-01-28T08:01:47;5.60;99.90
22781;DHT22;11557;50.884;4.322;2023-01-28T08:04:13;6.10;99.90
22781;DHT22;11557;50.884;4.322;2023-01-28T08:06:38;6.20;99.90
22781;DHT22;11557;50.884;4.322;2023-01-28T08:09:04;5.70;99.90
22781;DHT22;11557;50.884;4.322;2023-01-28T08:11:33;5.70;99.90
22781;DHT22;11557;50.884;4.322;2023-01-28T08:14:01;5.80;99.90
22781;DHT22;11557;50.884;4.322;2023-01-28T08:16:27;5.70;99.90
22781;DHT22;11557;50.884;4.322;2023-01-28T08:18:54;5.70;99.90
22781;DHT22;11557;50.884;4.322;2023-01-28T08:21:20;5.60;99.90
22781;DHT22;11557;50.884;4.322;2023-01-28T08:23:45;5.60;99.90
22781;DHT22;11557;50.884;4.322;2023-01-28T08:26:11;5.60;99.90
22781;DHT22;11557;50.884;4.322;2023-01-28T08:28:36;5.60;99.90
22781;DHT22;11557;50.884;4.322;2023-01-28T08:31:02;5.50;99.90
22781;DHT22;11557;50.884;4.322;2023-01-28T08:33:28;5.60;99.90
22781;DHT22;11557;50.884;4.322;2023-01-28T08:35:53;6.50;99.90
22781;DHT22;11557;50.884;4.322;2023-01-28T08:38:19;6.30;99.90
22781;DHT22;11557;50.884;4.322;2023-01-28T08:40:48;6.10;99.90
22781;DHT22;11557;50.884;4.322;2023-01-28T08:43:20;6.00;99.90
22781;DHT22;11557;50.884;4.322;2023-01-28T08:45:46;5.30;99.90
22781;DHT22;11557;50.884;4.322;2023-01-28T08:48:14;6.20;99.90
22781;DHT22;11557;50.884;4.322;2023-01-28T08:50:40;5.40;99.90
22781;DHT22;11557;50.884;4.322;2023-01-28T08:53:14;6.00;99.90
22781;DHT22;11557;50.884;4.322;2023-01-28T08:55:40;5.50;99.90
22781;DHT22;11557;50.884;4.322;2023-01-28T08:58:09;6.00;99.90
22781;DHT22;11557;50.884;4.322;2023-01-28T09:00:35;5.40;99.90
22781;DHT22;11557;50.884;4.322;2023-01-28T09:03:01;6.60;99.90
22781;DHT22;11557;50.884;4.322;2023-01-28T09:05:29;4.80;99.90
22781;DHT22;11557;50.884;4.322;2023-01-28T09:07:56;4.90;99.90
22781;DHT22;11557;50.884;4.322;2023-01-28T09:10:24;5.20;99.90
22781;DHT22;11557;50.884;4.322;2023-01-28T09:12:50;6.30;99.90
22781;DHT22;11557;50.884;4.322;2023-01-28T09:15:16;5.30;99.90
22781;DHT22;11557;50.884;4.322;2023-01-28T09:17:43;5.30;99.90
22781;DHT22;11557;50.884;4.322;2023-01-28T09:20:09;5.80;99.90
22781;DHT22;11557;50.884;4.322;2023-01-28T09:22:36;5.50;99.90
22781;DHT22;11557;50.884;4.322;2023-01-28T09:25:02;5.90;99.90
22781;DHT22;11557;50.884;4.322;2023-01-28T09:27:28;5.20;99.90
22781;DHT22;11557;50.884;4.322;2023-01-28T09:29:54;5.20;99.90
22781;DHT22;11557;50.884;4.322;2023-01-28T09:32:19;5.70;99.90
22781;DHT22;11557;50.884;4.322;2023-01-28T09:34:45;5.30;99.90
22781;DHT22;11557;50.884;4.322;2023-01-28T09:37:11;6.00;99.90
22781;DHT22;11557;50.884;4.322;2023-01-28T09:39:37;5.30;99.90
22781;DHT22;11557;50.884;4.322;2023-01-28T09:45:13;6.10;99.90
22781;DHT22;11557;50.884;4.322;2023-01-28T09:47:45;5.10;99.90
22781;DHT22;11557;50.884;4.322;2023-01-28T09:50:35;5.90;99.90
22781;DHT22;11557;50.884;4.322;2023-01-28T09:53:21;5.30;99.90
22781;DHT22;11557;50.884;4.322;2023-01-28T09:55:56;5.60;99.90
22781;DHT22;11557;50.884;4.322;2023-01-28T09:58:22;5.50;99.90
22781;DHT22;11557;50.884;4.322;2023-01-28T10:03:57;5.60;99.90
22781;DHT22;11557;50.884;4.322;2023-01-28T10:18:00;5.70;99.90
22781;DHT22;11557;50.884;4.322;2023-01-28T10:20:31;5.60;99.90
22781;DHT22;11557;50.884;4.322;2023-01-28T10:23:04;5.70;99.90
22781;DHT22;11557;50.884;4.322;2023-01-28T10:25:32;5.80;99.90
22781;DHT22;11557;50.884;4.322;2023-01-28T10:28:00;5.80;99.90
22781;DHT22;11557;50.884;4.322;2023-01-28T10:30:31;6.70;99.90
22781;DHT22;11557;50.884;4.322;2023-01-28T10:33:28;5.70;99.90
22781;DHT22;11557;50.884;4.322;2023-01-28T10:35:55;5.80;99.90
22781;DHT22;11557;50.884;4.322;2023-01-28T10:38:24;5.80;99.90
22781;DHT22;11557;50.884;4.322;2023-01-28T10:40:50;6.10;99.90
22781;DHT22;11557;50.884;4.322;2023-01-28T10:43:22;6.40;99.90
22781;DHT22;11557;50.884;4.322;2023-01-28T10:48:52;5.70;99.90
22781;DHT22;11557;50.884;4.322;2023-01-28T10:51:29;5.70;99.90
22781;DHT22;11557;50.884;4.322;2023-01-28T10:53:55;6.30;99.90
22781;DHT22;11557;50.884;4.322;2023-01-28T10:56:26;6.50;99.90
22781;DHT22;11557;50.884;4.322;2023-01-28T10:59:03;5.70;99.90
22781;DHT22;11557;50.884;4.322;2023-01-28T11:01:44;5.80;99.90
22781;DHT22;11557;50.884;4.322;2023-01-28T11:04:22;5.60;99.90
22781;DHT22;11557;50.884;4.322;2023-01-28T11:07:18;5.50;99.90
22781;DHT22;11557;50.884;4.322;2023-01-28T11:09:50;5.60;99.90
22781;DHT22;11557;50.884;4.322;2023-01-28T11:14:50;5.50;99.90
22781;DHT22;11557;50.884;4.322;2023-01-28T11:17:18;5.60;99.90
22781;DHT22;11557;50.884;4.322;2023-01-28T11:19:44;5.50;99.90
22781;DHT22;11557;50.884;4.322;2023-01-28T11:22:33;6.40;99.90
22781;DHT22;11557;50.884;4.322;2023-01-28T11:25:02;6.30;99.90
22781;DHT22;11557;50.884;4.322;2023-01-28T11:27:30;6.00;99.90
22781;DHT22;11557;50.884;4.322;2023-01-28T11:29:57;6.10;99.90
22781;DHT22;11557;50.884;4.322;2023-01-28T11:32:27;6.00;99.90
22781;DHT22;11557;50.884;4.322;2023-01-28T11:34:55;6.00;99.90
22781;DHT22;11557;50.884;4.322;2023-01-28T11:37:26;5.90;99.90
22781;DHT22;11557;50.884;4.322;2023-01-28T11:40:16;6.10;99.90
22781;DHT22;11557;50.884;4.322;2023-01-28T11:42:45;6.10;99.90
22781;DHT22;11557;50.884;4.322;2023-01-28T11:45:19;6.10;99.90
22781;DHT22;11557;50.884;4.322;2023-01-28T11:47:56;6.00;99.90
22781;DHT22;11557;50.884;4.322;2023-01-28T11:50:49;6.00;99.90
22781;DHT22;11557;50.884;4.322;2023-01-28T11:53:23;6.00;99.90
22781;DHT22;11557;50.884;4.322;2023-01-28T12:01:27;6.20;99.90
22781;DHT22;11557;50.884;4.322;2023-01-28T12:15:30;6.30;99.90
22781;DHT22;11557;50.884;4.322;2023-01-28T12:21:02;6.30;99.90
22781;DHT22;11557;50.884;4.322;2023-01-28T12:23:52;6.10;99.90
22781;DHT22;11557;50.884;4.322;2023-01-28T12:29:28;6.50;99.90
22781;DHT22;11557;50.884;4.322;2023-01-28T12:40:37;7.10;99.90
22781;DHT22;11557;50.884;4.322;2023-01-28T12:43:21;6.60;99.90
22781;DHT22;11557;50.884;4.322;2023-01-28T12:45:56;6.80;99.90
22781;DHT22;11557;50.884;4.322;2023-01-28T12:48:39;6.80;99.90
22781;DHT22;11557;50.884;4.322;2023-01-28T12:51:23;7.00;99.90
22781;DHT22;11557;50.884;4.322;2023-01-28T12:56:52;7.20;99.90
22781;DHT22;11557;50.884;4.322;2023-01-28T12:59:31;6.80;99.90
22781;DHT22;11557;50.884;4.322;2023-01-28T13:02:20;7.20;99.90
22781;DHT22;11557;50.884;4.322;2023-01-28T13:08:12;7.30;99.90
22781;DHT22;11557;50.884;4.322;2023-01-28T13:10:46;7.40;99.90
22781;DHT22;11557;50.884;4.322;2023-01-28T13:13:31;7.50;99.90
22781;DHT22;11557;50.884;4.322;2023-01-28T13:15:58;7.60;99.90
22781;DHT22;11557;50.884;4.322;2023-01-28T13:26:43;8.00;99.90
22781;DHT22;11557;50.884;4.322;2023-01-28T13:31:55;8.70;99.90
22781;DHT22;11557;50.884;4.322;2023-01-28T13:34:36;7.90;99.90
22781;DHT22;11557;50.884;4.322;2023-01-28T13:39:50;7.70;99.90
22781;DHT22;11557;50.884;4.322;2023-01-28T13:44:49;7.50;99.90
22781;DHT22;11557;50.884;4.322;2023-01-28T13:47:31;7.30;99.90
22781;DHT22;11557;50.884;4.322;2023-01-28T13:50:04;7.40;99.90
22781;DHT22;11557;50.884;4.322;2023-01-28T13:52:48;7.40;99.90
22781;DHT22;11557;50.884;4.322;2023-01-28T13:55:21;7.50;99.90
22781;DHT22;11557;50.884;4.322;2023-01-28T14:01:18;7.70;99.90
22781;DHT22;11557;50.884;4.322;2023-01-28T14:04:23;7.50;99.90
22781;DHT22;11557;50.884;4.322;2023-01-28T14:07:04;7.60;99.90
22781;DHT22;11557;50.884;4.322;2023-01-28T14:17:54;7.40;99.90
22781;DHT22;11557;50.884;4.322;2023-01-28T14:20:40;7.60;99.90
22781;DHT22;11557;50.884;4.322;2023-01-28T14:23:17;7.60;99.90
22781;DHT22;11557;50.884;4.322;2023-01-28T14:31:44;7.40;99.90
22781;DHT22;11557;50.884;4.322;2023-01-28T14:34:23;7.60;99.90
22781;DHT22;11557;50.884;4.322;2023-01-28T14:36:52;7.50;99.90
22781;DHT22;11557;50.884;4.322;2023-01-28T14:39:25;7.10;99.90
22781;DHT22;11557;50.884;4.322;2023-01-28T14:41:53;7.10;99.90
22781;DHT22;11557;50.884;4.322;2023-01-28T14:49:43;7.40;99.90
22781;DHT22;11557;50.884;4.322;2023-01-28T14:52:19;7.30;99.90
22781;DHT22;11557;50.884;4.322;2023-01-28T14:55:08;6.90;99.90
22781;DHT22;11557;50.884;4.322;2023-01-28T14:57:44;6.80;99.90
22781;DHT22;11557;50.884;4.322;2023-01-28T15:00:22;6.90;99.90
22781;DHT22;11557;50.884;4.322;2023-01-28T15:02:49;7.30;99.90
22781;DHT22;11557;50.884;4.322;2023-01-28T15:05:26;7.00;99.90
22781;DHT22;11557;50.884;4.322;2023-01-28T15:07:52;6.90;99.90
22781;DHT22;11557;50.884;4.322;2023-01-28T15:10:23;7.60;99.90
22781;DHT22;11557;50.884;4.322;2023-01-28T15:15:36;7.10;99.90
22781;DHT22;11557;50.884;4.322;2023-01-28T15:18:13;7.10;99.90
22781;DHT22;11557;50.884;4.322;2023-01-28T15:20:43;7.20;99.90
22781;DHT22;11557;50.884;4.322;2023-01-28T15:23:14;7.20;99.90
22781;DHT22;11557;50.884;4.322;2023-01-28T15:25:40;7.20;99.90
22781;DHT22;11557;50.884;4.322;2023-01-28T15:28:14;6.90;99.90
22781;DHT22;11557;50.884;4.322;2023-01-28T15:30:44;6.90;99.90
22781;DHT22;11557;50.884;4.322;2023-01-28T15:33:13;7.00;99.90
22781;DHT22;11557;50.884;4.322;2023-01-28T15:35:52;7.00;99.90
22781;DHT22;11557;50.884;4.322;2023-01-28T15:38:19;7.00;99.90
22781;DHT22;11557;50.884;4.322;2023-01-28T15:40:55;7.00;99.90
22781;DHT22;11557;50.884;4.322;2023-01-28T15:43:30;7.30;99.90
22781;DHT22;11557;50.884;4.322;2023-01-28T15:45:57;7.20;99.90
22781;DHT22;11557;50.884;4.322;2023-01-28T15:48:25;7.10;99.90
22781;DHT22;11557;50.884;4.322;2023-01-28T15:51:16;7.00;99.90
22781;DHT22;11557;50.884;4.322;2023-01-28T15:53:45;7.00;99.90
22781;DHT22;11557;50.884;4.322;2023-01-28T15:56:13;6.90;99.90
22781;DHT22;11557;50.884;4.322;2023-01-28T15:58:39;6.90;99.90
22781;DHT22;11557;50.884;4.322;2023-01-28T16:03:35;6.80;99.90
22781;DHT22;11557;50.884;4.322;2023-01-28T16:06:19;6.60;99.90
22781;DHT22;11557;50.884;4.322;2023-01-28T16:08:55;6.40;99.90
22781;DHT22;11557;50.884;4.322;2023-01-28T16:11:38;6.20;99.90
22781;DHT22;11557;50.884;4.322;2023-01-28T16:14:45;6.30;99.90
22781;DHT22;11557;50.884;4.322;2023-01-28T16:17:23;5.90;99.90
22781;DHT22;11557;50.884;4.322;2023-01-28T16:19:57;5.80;99.90
22781;DHT22;11557;50.884;4.322;2023-01-28T16:24:53;6.00;99.90
22781;DHT22;11557;50.884;4.322;2023-01-28T16:27:28;5.80;99.90
22781;DHT22;11557;50.884;4.322;2023-01-28T16:29:54;6.30;99.90
22781;DHT22;11557;50.884;4.322;2023-01-28T16:34:58;5.50;99.90
22781;DHT22;11557;50.884;4.322;2023-01-28T16:37:24;5.60;99.90
22781;DHT22;11557;50.884;4.322;2023-01-28T16:39:50;6.10;99.90
22781;DHT22;11557;50.884;4.322;2023-01-28T16:42:16;6.00;99.90
22781;DHT22;11557;50.884;4.322;2023-01-28T16:44:41;5.60;99.90
22781;DHT22;11557;50.884;4.322;2023-01-28T16:47:07;6.50;99.90
22781;DHT22;11557;50.884;4.322;2023-01-28T16:49:33;5.60;99.90
22781;DHT22;11557;50.884;4.322;2023-01-28T16:52:00;6.00;99.90
22781;DHT22;11557;50.884;4.322;2023-01-28T16:54:26;6.10;99.90
22781;DHT22;11557;50.884;4.322;2023-01-28T16:56:53;6.40;99.90
22781;DHT22;11557;50.884;4.322;2023-01-28T16:59:19;6.00;99.90
22781;DHT22;11557;50.884;4.322;2023-01-28T17:01:45;6.10;99.90
22781;DHT22;11557;50.884;4.322;2023-01-28T17:04:11;6.00;99.90
22781;DHT22;11557;50.884;4.322;2023-01-28T17:06:37;5.90;99.90
22781;DHT22;11557;50.884;4.322;2023-01-28T17:09:05;5.80;99.90
22781;DHT22;11557;50.884;4.322;2023-01-28T17:11:32;5.60;99.90
22781;DHT22;11557;50.884;4.322;2023-01-28T17:13:58;5.50;99.90
22781;DHT22;11557;50.884;4.322;2023-01-28T17:16:24;5.40;99.90
22781;DHT22;11557;50.884;4.322;2023-01-28T17:18:51;6.00;99.90
22781;DHT22;11557;50.884;4.322;2023-01-28T17:21:17;5.60;99.90
22781;DHT22;11557;50.884;4.322;2023-01-28T17:23:43;6.40;99.90
22781;DHT22;11557;50.884;4.322;2023-01-28T17:26:12;6.50;99.90
22781;DHT22;11557;50.884;4.322;2023-01-28T17:28:38;5.90;99.90
22781;DHT22;11557;50.884;4.322;2023-01-28T17:31:06;5.30;99.90
22781;DHT22;11557;50.884;4.322;2023-01-28T17:33:32;5.20;99.90
22781;DHT22;11557;50.884;4.322;2023-01-28T17:35:59;5.20;99.90
22781;DHT22;11557;50.884;4.322;2023-01-28T17:38:26;5.10;99.90
22781;DHT22;11557;50.884;4.322;2023-01-28T17:40:52;5.00;99.90
22781;DHT22;11557;50.884;4.322;2023-01-28T17:43:17;5.20;99.90
22781;DHT22;11557;50.884;4.322;2023-01-28T17:45:43;5.30;99.90
22781;DHT22;11557;50.884;4.322;2023-01-28T17:48:09;5.20;99.90
22781;DHT22;11557;50.884;4.322;2023-01-28T17:50:38;5.80;99.90
22781;DHT22;11557;50.884;4.322;2023-01-28T17:53:04;5.00;99.90
22781;DHT22;11557;50.884;4.322;2023-01-28T17:55:33;5.00;99.90
22781;DHT22;11557;50.884;4.322;2023-01-28T17:57:58;5.30;99.90
22781;DHT22;11557;50.884;4.322;2023-01-28T18:00:24;5.90;99.90
22781;DHT22;11557;50.884;4.322;2023-01-28T18:02:51;5.30;99.90
22781;DHT22;11557;50.884;4.322;2023-01-28T18:05:17;6.10;99.90
22781;DHT22;11557;50.884;4.322;2023-01-28T18:07:43;5.50;99.90
22781;DHT22;11557;50.884;4.322;2023-01-28T18:10:11;5.20;99.90
22781;DHT22;11557;50.884;4.322;2023-01-28T18:12:37;5.30;99.90
22781;DHT22;11557;50.884;4.322;2023-01-28T18:15:03;4.50;99.90
22781;DHT22;11557;50.884;4.322;2023-01-28T18:17:29;4.60;99.90